Time;durP1;ratioP1;P1;durP2;ratioP2;P2;SDS_P1;SDS_P2;PMS_P1;PMS_P2;Temp;Humidity;BMP_temperature;BMP_pressure;BME280_temperature;BME280_humidity;BME280_pressure;Samples;Min_cycle;Max_cycle;Signal;HPM_P1;HPM_P2
2023/03/11 00:00:27;;;;;;;10.10;3.07;;;;;;;11.16;36.70;100820.66;5067225;28;20459;-69
2023/03/11 00:02:55;;;;;;;8.53;2.57;;;;;;;10.68;36.71;100816.81;5061704;28;20028;-70
2023/03/11 00:05:27;;;;;;;13.07;2.87;;;;;;;11.13;37.47;100818.06;5067606;28;20020;-70
2023/03/11 00:07:52;;;;;;;5.40;2.00;;;;;;;11.01;37.47;100822.53;5065993;28;20029;-70
2023/03/11 00:10:24;;;;;;;9.90;1.80;;;;;;;10.28;38.07;100814.56;5066458;28;20043;-70
2023/03/11 00:12:50;;;;;;;14.10;2.30;;;;;;;10.01;39.62;100816.56;5059859;28;20065;-70
2023/03/11 00:15:15;;;;;;;12.60;2.90;;;;;;;10.01;39.04;100827.00;5048291;28;20053;-70
2023/03/11 00:17:41;;;;;;;15.63;3.33;;;;;;;9.95;38.81;100820.94;5048655;28;20036;-71
2023/03/11 00:20:08;;;;;;;7.90;3.20;;;;;;;9.94;39.22;100825.28;5059873;28;20032;-70
2023/03/11 00:22:33;;;;;;;11.60;2.90;;;;;;;9.97;39.25;100830.50;5066422;28;20091;-70
2023/03/11 00:24:58;;;;;;;9.57;2.70;;;;;;;9.26;40.56;100835.25;5068625;28;20138;-70
2023/03/11 00:27:24;;;;;;;6.50;1.37;;;;;;;9.77;40.77;100842.84;5067455;28;20035;-70
2023/03/11 00:29:49;;;;;;;2.67;1.27;;;;;;;9.61;39.92;100853.34;5058935;28;20037;-70
2023/03/11 00:32:15;;;;;;;5.33;0.90;;;;;;;9.81;39.52;100853.25;5068489;28;20062;-70
2023/03/11 00:34:40;;;;;;;7.80;1.37;;;;;;;10.26;38.27;100860.75;5065045;28;20051;-70
2023/03/11 00:37:06;;;;;;;6.83;1.17;;;;;;;10.54;38.33;100863.16;5067909;28;20028;-70
2023/03/11 00:39:32;;;;;;;11.90;1.43;;;;;;;10.47;38.03;100861.50;5065901;28;20028;-70
2023/03/11 00:41:58;;;;;;;4.77;1.47;;;;;;;10.33;38.50;100875.50;5068497;28;20070;-70
2023/03/11 00:44:23;;;;;;;9.20;1.70;;;;;;;9.99;38.22;100874.88;5066526;28;20028;-70
2023/03/11 00:46:48;;;;;;;10.47;1.50;;;;;;;9.81;37.87;100883.72;5065494;28;20397;-70
2023/03/11 00:49:14;;;;;;;12.33;1.60;;;;;;;8.90;38.47;100874.53;5066186;28;20033;-70
2023/03/11 00:51:39;;;;;;;5.37;0.60;;;;;;;8.60;39.23;100876.31;5065560;28;20058;-71
2023/03/11 00:54:05;;;;;;;5.47;1.00;;;;;;;9.36;37.62;100877.84;5068411;28;20930;-70
2023/03/11 00:56:30;;;;;;;6.13;0.80;;;;;;;9.96;37.29;100869.66;5066083;28;20392;-70
2023/03/11 00:58:56;;;;;;;4.03;0.80;;;;;;;9.58;37.86;100874.25;5068841;28;20078;-70
2023/03/11 01:01:22;;;;;;;4.50;0.70;;;;;;;9.55;36.82;100876.00;5067487;28;20397;-70
2023/03/11 01:03:47;;;;;;;5.63;1.10;;;;;;;10.05;36.10;100873.97;5068147;28;20119;-71
2023/03/11 01:06:13;;;;;;;4.87;0.70;;;;;;;9.92;36.24;100874.06;5070477;28;20021;-70
2023/03/11 01:08:38;;;;;;;3.30;0.70;;;;;;;10.00;35.86;100876.59;5072003;28;20028;-70
2023/03/11 01:11:06;;;;;;;4.13;0.90;;;;;;;9.73;36.77;100885.50;5070239;28;20029;-70
2023/03/11 01:13:32;;;;;;;8.77;1.37;;;;;;;9.67;36.82;100887.25;5069449;28;20092;-70
2023/03/11 01:15:57;;;;;;;7.27;1.50;;;;;;;9.48;37.97;100883.03;5071314;28;20029;-70
2023/03/11 01:18:23;;;;;;;5.00;1.30;;;;;;;9.33;37.10;100899.59;5058960;28;20129;-69
2023/03/11 01:20:49;;;;;;;11.33;1.47;;;;;;;9.45;37.00;100889.13;5057866;28;20043;-69
2023/03/11 01:23:16;;;;;;;4.67;1.20;;;;;;;9.92;36.66;100894.06;5071391;28;20073;-70
2023/03/11 01:25:41;;;;;;;3.43;1.13;;;;;;;9.64;36.02;100897.72;5069293;28;20056;-70
2023/03/11 01:28:07;;;;;;;6.20;1.37;;;;;;;9.84;36.42;100899.34;5069636;28;20075;-70
2023/03/11 01:30:34;;;;;;;7.07;1.30;;;;;;;9.83;36.92;100905.44;5069304;28;20031;-69
2023/03/11 01:33:01;;;;;;;10.67;2.00;;;;;;;9.97;36.61;100898.41;5067576;28;20055;-69
2023/03/11 01:35:28;;;;;;;4.17;1.43;;;;;;;9.43;37.48;100911.72;5069630;28;20033;-70
2023/03/11 01:37:54;;;;;;;8.17;1.20;;;;;;;9.93;36.83;100893.19;5070076;28;20032;-70
2023/03/11 01:40:42;;;;;;;6.07;1.17;;;;;;;9.48;37.57;100903.91;5069654;28;20024;-71
2023/03/11 01:43:42;;;;;;;8.47;1.47;;;;;;;9.28;38.73;100902.22;5071455;28;20035;-70
2023/03/11 01:46:46;;;;;;;8.00;1.60;;;;;;;9.46;38.10;100916.06;5062771;28;20044;-70
2023/03/11 01:49:12;;;;;;;7.90;1.70;;;;;;;8.80;38.74;100909.28;5071192;28;20035;-71
2023/03/11 01:51:41;;;;;;;2.83;1.10;;;;;;;9.04;37.86;100917.94;5069431;28;20036;-70
2023/03/11 01:54:10;;;;;;;4.57;1.70;;;;;;;9.61;37.75;100913.38;5068943;28;20104;-70
2023/03/11 01:56:38;;;;;;;7.37;2.30;;;;;;;8.97;39.31;100920.56;5068787;28;20024;-70
2023/03/11 01:59:06;;;;;;;7.63;1.70;;;;;;;9.11;37.97;100919.66;5068744;28;20036;-70
2023/03/11 02:01:31;;;;;;;7.97;1.30;;;;;;;8.79;39.34;100917.97;5069044;28;20031;-69
2023/03/11 02:03:57;;;;;;;5.37;1.30;;;;;;;8.88;38.51;100907.53;5071416;28;20020;-70
2023/03/11 02:06:23;;;;;;;8.70;1.47;;;;;;;9.22;37.11;100917.88;5069138;28;20123;-70
2023/03/11 02:08:49;;;;;;;7.10;1.77;;;;;;;9.11;38.35;100909.25;5069875;28;20028;-70
2023/03/11 02:11:20;;;;;;;8.60;1.50;;;;;;;8.85;38.11;100917.97;5064054;28;20496;-69
2023/03/11 02:13:48;;;;;;;3.53;1.57;;;;;;;9.00;38.17;100912.72;5052020;28;20052;-69
2023/03/11 02:16:13;;;;;;;2.07;1.00;;;;;;;9.13;37.01;100920.50;5068091;28;20486;-69
2023/03/11 02:18:39;;;;;;;5.17;1.30;;;;;;;9.29;36.70;100914.38;5069185;28;20502;-70
2023/03/11 02:21:07;;;;;;;6.93;2.17;;;;;;;9.36;37.63;100920.44;5071117;28;20439;-70
2023/03/11 02:23:46;;;;;;;4.83;1.27;;;;;;;8.68;38.00;100917.97;5067831;28;20064;-70
2023/03/11 02:26:18;;;;;;;5.43;1.10;;;;;;;9.36;37.92;100919.59;5070590;28;20500;-70
2023/03/11 02:28:46;;;;;;;4.30;1.73;;;;;;;9.28;37.52;100923.06;5067880;28;20460;-70
2023/03/11 02:31:12;;;;;;;9.90;1.10;;;;;;;9.16;37.48;100918.78;5069130;28;20021;-70
2023/03/11 02:33:38;;;;;;;2.60;0.80;;;;;;;9.52;36.80;100918.66;5067226;28;20024;-70
2023/03/11 02:36:04;;;;;;;2.10;0.80;;;;;;;9.76;37.42;100908.97;5068401;28;20028;-70
2023/03/11 02:38:30;;;;;;;3.27;0.90;;;;;;;9.72;37.77;100907.25;5066987;28;20036;-70
2023/03/11 02:41:02;;;;;;;4.97;1.27;;;;;;;9.06;39.92;100917.06;5069001;28;20074;-70
2023/03/11 02:43:37;;;;;;;4.97;1.30;;;;;;;9.38;39.97;100913.47;5067112;28;20028;-70
2023/03/11 02:46:05;;;;;;;6.67;2.13;;;;;;;9.13;39.34;100923.13;5067764;28;20024;-70
2023/03/11 02:48:30;;;;;;;5.07;1.90;;;;;;;8.72;41.20;100916.25;5067957;28;20035;-70
2023/03/11 02:50:57;;;;;;;4.97;1.63;;;;;;;8.86;41.79;100914.50;5068557;28;20032;-70
2023/03/11 02:53:23;;;;;;;4.83;0.77;;;;;;;8.79;40.56;100917.97;5068906;28;20028;-70
2023/03/11 02:55:49;;;;;;;8.53;1.77;;;;;;;8.63;41.76;100922.34;5069507;28;20035;-70
2023/03/11 02:58:14;;;;;;;6.43;0.87;;;;;;;8.65;41.04;100921.47;5065957;28;20396;-70
2023/03/11 03:00:39;;;;;;;2.67;0.87;;;;;;;8.57;42.37;100927.53;5066822;28;20029;-70
2023/03/11 03:03:05;;;;;;;4.07;0.63;;;;;;;8.59;43.88;100931.88;5068660;28;20036;-70
2023/03/11 03:05:30;;;;;;;5.10;0.60;;;;;;;8.32;44.05;100928.41;5069009;28;20024;-71
2023/03/11 03:07:55;;;;;;;5.17;0.90;;;;;;;8.20;43.72;100938.78;5069105;28;20033;-70
2023/03/11 03:10:21;;;;;;;5.27;1.00;;;;;;;8.11;44.05;100937.03;5068729;28;20082;-69
2023/03/11 03:12:47;;;;;;;5.73;0.80;;;;;;;8.00;44.14;100941.34;5063421;28;20063;-69
2023/03/11 03:15:14;;;;;;;3.23;1.00;;;;;;;8.08;44.70;100946.59;5067789;28;20032;-70
2023/03/11 03:17:40;;;;;;;3.40;0.67;;;;;;;7.89;46.26;100949.13;5067070;28;20032;-69
2023/03/11 03:20:10;;;;;;;3.07;0.63;;;;;;;8.06;47.24;100950.91;5068157;28;20028;-70
2023/03/11 03:22:36;;;;;;;6.30;1.03;;;;;;;7.98;45.96;100958.69;5068133;28;20123;-70
2023/03/11 03:25:01;;;;;;;3.83;1.00;;;;;;;8.07;44.56;100963.06;5066842;28;20075;-70
2023/03/11 03:27:26;;;;;;;4.77;0.73;;;;;;;8.00;46.52;100962.19;5066782;28;20035;-70
2023/03/11 03:29:52;;;;;;;6.13;0.90;;;;;;;8.18;46.36;100963.94;5068963;28;20055;-69
2023/03/11 03:32:17;;;;;;;1.47;0.83;;;;;;;8.01;45.80;100968.25;5067415;28;20028;-69
2023/03/11 03:34:42;;;;;;;6.77;0.90;;;;;;;7.93;46.26;100976.91;5067129;28;20034;-71
2023/03/11 03:37:08;;;;;;;2.10;0.90;;;;;;;7.94;46.70;100986.47;5067918;28;20120;-70
2023/03/11 03:39:33;;;;;;;1.33;0.90;;;;;;;8.15;46.30;100979.56;5065665;28;20040;-71
2023/03/11 03:41:59;;;;;;;1.03;0.67;;;;;;;7.90;46.35;100987.31;5066771;28;20067;-70
2023/03/11 03:44:24;;;;;;;4.83;1.00;;;;;;;7.71;46.52;100977.69;5067411;28;20066;-70
2023/03/11 03:46:49;;;;;;;3.30;1.00;;;;;;;7.69;47.32;100987.22;5066985;28;20044;-70
2023/03/11 03:49:15;;;;;;;3.17;1.10;;;;;;;7.91;46.66;100983.84;5053241;28;20488;-70
2023/03/11 03:51:40;;;;;;;1.80;0.60;;;;;;;7.78;48.19;100993.31;5047549;28;20045;-70
2023/03/11 03:54:06;;;;;;;5.43;1.43;;;;;;;7.78;48.26;100995.06;5052056;28;20039;-70
2023/03/11 03:56:31;;;;;;;10.60;1.00;;;;;;;7.89;47.86;100998.56;5067488;28;20032;-70
2023/03/11 03:58:56;;;;;;;3.30;1.13;;;;;;;7.67;47.07;101000.22;5068244;28;20028;-70
2023/03/11 04:01:22;;;;;;;4.20;1.07;;;;;;;7.63;46.71;100998.47;5065006;28;20024;-70
2023/03/11 04:03:47;;;;;;;1.67;0.80;;;;;;;8.17;46.79;100995.19;5068623;28;20494;-69
2023/03/11 04:06:19;;;;;;;5.40;0.83;;;;;;;8.21;46.81;100997.78;5067546;28;20203;-70
2023/03/11 04:08:44;;;;;;;3.97;1.37;;;;;;;7.55;47.81;101000.16;5067874;28;20036;-70
2023/03/11 04:11:10;;;;;;;2.30;0.90;;;;;;;7.60;47.67;101004.53;5066627;28;20055;-71
2023/03/11 04:13:36;;;;;;;4.90;1.00;;;;;;;8.02;46.58;101004.69;5068873;28;20113;-70
2023/03/11 04:16:03;;;;;;;0.90;0.70;;;;;;;7.76;46.34;100994.19;5067270;28;20190;-70
2023/03/11 04:18:32;;;;;;;5.23;0.90;;;;;;;7.83;46.76;100995.97;5068878;28;20055;-70
2023/03/11 04:20:57;;;;;;;4.73;1.20;;;;;;;7.41;47.91;100995.75;5067421;28;20092;-70
2023/03/11 04:23:23;;;;;;;7.77;1.47;;;;;;;7.76;47.72;101000.28;5064691;28;20044;-70
2023/03/11 04:25:48;;;;;;;2.53;0.90;;;;;;;7.83;46.97;100993.38;5066415;28;20370;-71
2023/03/11 04:28:14;;;;;;;6.60;1.10;;;;;;;7.78;47.91;100988.13;5065935;28;20033;-70
2023/03/11 04:30:40;;;;;;;3.83;1.07;;;;;;;8.15;47.16;100992.59;5066216;28;20052;-71
2023/03/11 04:33:05;;;;;;;2.30;1.33;;;;;;;7.79;48.31;100996.81;5062529;28;20176;-71
2023/03/11 04:35:30;;;;;;;3.07;1.10;;;;;;;7.79;49.25;100995.06;5065428;28;20028;-70
2023/03/11 04:37:56;;;;;;;3.27;0.87;;;;;;;7.65;49.06;100996.72;5067122;28;20024;-70
2023/03/11 04:40:21;;;;;;;2.93;1.50;;;;;;;7.62;48.99;100997.63;5065906;28;20116;-69
2023/03/11 04:42:47;;;;;;;5.57;1.80;;;;;;;7.88;48.32;101007.25;5064323;28;20060;-69
2023/03/11 04:45:12;;;;;;;3.67;0.83;;;;;;;7.62;49.66;101002.81;5067312;28;20350;-69
2023/03/11 04:47:38;;;;;;;7.93;1.27;;;;;;;7.60;48.41;101014.94;5064808;28;20485;-69
2023/03/11 04:50:04;;;;;;;2.87;0.90;;;;;;;7.64;50.64;101014.09;5065541;28;20020;-69
2023/03/11 04:52:30;;;;;;;2.70;1.00;;;;;;;7.42;50.21;101020.06;5067953;28;20028;-69
2023/03/11 04:54:55;;;;;;;1.20;1.10;;;;;;;7.67;49.33;101020.19;5066342;28;20029;-72
2023/03/11 04:57:20;;;;;;;3.37;1.20;;;;;;;7.38;49.59;101018.28;5065179;28;20071;-69
2023/03/11 04:59:46;;;;;;;1.77;1.30;;;;;;;7.53;48.45;101017.47;5064809;28;20040;-69
2023/03/11 05:02:12;;;;;;;3.07;1.30;;;;;;;7.68;47.74;101024.50;5067363;28;20033;-69
2023/03/11 05:04:37;;;;;;;3.20;1.30;;;;;;;7.24;49.17;101016.47;5064825;28;20328;-70
2023/03/11 05:07:02;;;;;;;10.80;1.77;;;;;;;7.37;48.80;101012.19;5067507;28;20575;-69
2023/03/11 05:09:28;;;;;;;5.53;1.40;;;;;;;7.17;52.11;101024.19;5067703;28;20029;-69
2023/03/11 05:11:53;;;;;;;2.20;1.17;;;;;;;7.27;50.87;101036.41;5065688;28;20040;-70
2023/03/11 05:14:18;;;;;;;1.17;0.90;;;;;;;7.34;50.61;101027.78;5066917;28;20035;-70
2023/03/11 05:16:44;;;;;;;2.33;1.30;;;;;;;7.61;49.26;101027.09;5067226;28;20040;-70
2023/03/11 05:21:53;;;;;;;3.70;1.00;;;;;;;7.43;49.42;101029.56;5058423;28;20452;-70
2023/03/11 05:24:19;;;;;;;2.63;1.33;;;;;;;7.26;50.89;101030.31;5066221;28;20123;-69
2023/03/11 05:26:44;;;;;;;11.47;1.90;;;;;;;7.04;51.18;101033.66;5067121;28;20480;-70
2023/03/11 05:29:10;;;;;;;4.33;1.27;;;;;;;7.08;51.12;101035.41;5065863;28;20032;-70
2023/03/11 05:31:35;;;;;;;7.33;1.40;;;;;;;7.06;50.27;101032.81;5065695;28;20028;-71
2023/03/11 05:34:00;;;;;;;3.87;1.40;;;;;;;7.17;50.97;101045.88;5065519;28;20549;-70
2023/03/11 05:36:26;;;;;;;3.73;2.17;;;;;;;7.47;49.43;101039.13;5062757;28;20115;-70
2023/03/11 05:38:52;;;;;;;7.13;1.83;;;;;;;7.41;50.24;101036.50;5064624;28;20649;-69
2023/03/11 05:41:17;;;;;;;11.20;2.53;;;;;;;7.07;51.54;101033.66;5068166;28;20090;-69
2023/03/11 05:43:43;;;;;;;5.60;1.40;;;;;;;7.30;50.09;101041.63;5068324;28;20256;-70
2023/03/11 05:46:09;;;;;;;4.80;1.23;;;;;;;7.30;51.33;101049.44;5069655;28;20048;-70
2023/03/11 05:48:35;;;;;;;3.73;1.33;;;;;;;7.23;50.38;101051.13;5070704;28;20028;-70
2023/03/11 05:51:05;;;;;;;3.87;1.40;;;;;;;7.04;52.48;101046.66;5064820;28;20033;-70
2023/03/11 05:53:30;;;;;;;3.33;1.60;;;;;;;7.18;51.48;101057.16;5068974;28;20056;-70
2023/03/11 05:56:00;;;;;;;6.60;1.50;;;;;;;7.12;49.77;101052.78;5069953;28;20453;-70
2023/03/11 05:58:27;;;;;;;4.63;1.30;;;;;;;7.18;50.29;101063.19;5069342;28;20024;-70
2023/03/11 06:00:52;;;;;;;7.60;1.93;;;;;;;6.94;49.04;101069.94;5067860;28;20039;-70
2023/03/11 06:03:18;;;;;;;5.10;1.60;;;;;;;7.28;49.30;101059.81;5068743;28;20040;-70
2023/03/11 06:05:48;;;;;;;6.80;1.37;;;;;;;6.87;50.20;101068.16;5069643;28;20060;-70
2023/03/11 06:08:14;;;;;;;6.00;2.03;;;;;;;6.79;50.43;101072.41;5069405;28;20033;-70
2023/03/11 06:10:40;;;;;;;5.03;1.63;;;;;;;7.05;49.72;101070.03;5067915;28;20025;-69
2023/03/11 06:13:05;;;;;;;5.83;1.40;;;;;;;6.85;49.84;101075.06;5069632;28;20064;-70
2023/03/11 06:15:35;;;;;;;3.33;1.13;;;;;;;6.88;49.90;101079.41;5070056;28;20491;-70
2023/03/11 06:18:00;;;;;;;4.43;1.80;;;;;;;7.08;49.26;101088.25;5068255;28;20032;-70
2023/03/11 06:20:26;;;;;;;3.60;1.57;;;;;;;6.74;49.05;101097.47;5068342;28;20360;-70
2023/03/11 06:22:51;;;;;;;6.53;2.13;;;;;;;6.89;49.83;101087.22;5068497;28;20546;-70
2023/03/11 06:25:17;;;;;;;4.37;2.00;;;;;;;6.89;48.94;101087.22;5069834;28;20024;-70
2023/03/11 06:27:43;;;;;;;6.37;1.60;;;;;;;7.02;48.73;101102.94;5068177;28;20060;-70
2023/03/11 06:30:09;;;;;;;2.83;1.63;;;;;;;7.10;48.25;101091.75;5067146;28;20069;-70
2023/03/11 06:32:36;;;;;;;4.80;2.03;;;;;;;7.07;47.86;101096.91;5067642;28;20325;-73
2023/03/11 06:35:04;;;;;;;3.03;1.63;;;;;;;6.92;49.25;101092.47;5068245;28;20770;-73
2023/03/11 06:37:30;;;;;;;6.33;2.20;;;;;;;6.85;49.67;101095.00;5068616;28;20039;-70
2023/03/11 06:39:55;;;;;;;12.73;2.77;;;;;;;6.56;51.23;101114.59;5068374;28;20294;-70
2023/03/11 06:42:22;;;;;;;4.13;2.30;;;;;;;6.48;51.69;101105.84;5068093;28;20492;-70
2023/03/11 06:44:49;;;;;;;4.17;2.00;;;;;;;6.61;51.63;101112.94;5069971;28;20380;-70
2023/03/11 06:47:15;;;;;;;5.30;2.70;;;;;;;6.64;51.55;101117.31;5068741;28;20736;-70
2023/03/11 06:49:41;;;;;;;13.60;2.97;;;;;;;6.85;51.05;101115.78;5066061;28;20291;-70
2023/03/11 06:52:07;;;;;;;8.13;2.53;;;;;;;6.73;51.99;101126.91;5069005;28;20025;-70
2023/03/11 06:54:33;;;;;;;5.57;2.70;;;;;;;6.82;51.13;101129.59;5067785;28;20066;-70
2023/03/11 06:56:59;;;;;;;7.10;2.80;;;;;;;6.88;50.90;101127.09;5069382;28;20397;-70
2023/03/11 06:59:24;;;;;;;15.70;3.57;;;;;;;6.84;51.26;101140.91;5070296;28;20103;-70
2023/03/11 07:01:50;;;;;;;7.20;3.13;;;;;;;6.97;50.65;101124.56;5066130;28;20024;-70
2023/03/11 07:04:15;;;;;;;12.83;3.70;;;;;;;6.99;51.06;101131.50;5067332;28;20068;-70
2023/03/11 07:06:42;;;;;;;9.73;2.93;;;;;;;7.21;49.94;101133.44;5068212;28;20024;-70
2023/03/11 07:09:07;;;;;;;9.57;3.70;;;;;;;7.20;50.37;101125.63;5068252;28;20028;-70
2023/03/11 07:11:32;;;;;;;6.70;3.90;;;;;;;7.37;49.84;101134.44;5066591;28;20265;-72
2023/03/11 07:13:58;;;;;;;8.73;3.90;;;;;;;7.60;48.44;101139.81;5068239;28;20107;-71
2023/03/11 07:16:26;;;;;;;7.63;3.50;;;;;;;7.25;49.61;101145.63;5067044;28;20123;-70
2023/03/11 07:18:54;;;;;;;6.97;4.83;;;;;;;7.27;50.15;101146.50;5068057;28;20024;-70
2023/03/11 07:21:21;;;;;;;12.20;5.10;;;;;;;7.46;49.97;101146.66;5085435;28;20286;-70
2023/03/11 07:23:50;;;;;;;12.37;6.90;;;;;;;7.64;49.17;101151.97;5066293;28;20031;-70
2023/03/11 07:26:16;;;;;;;8.93;4.77;;;;;;;7.74;48.64;101158.13;5069376;28;20021;-70
2023/03/11 07:28:43;;;;;;;10.57;5.23;;;;;;;7.95;47.97;101162.63;5067826;28;20770;-70
2023/03/11 07:31:14;;;;;;;9.30;4.63;;;;;;;7.97;47.89;101160.88;5065625;28;20387;-70
2023/03/11 07:33:40;;;;;;;11.23;4.90;;;;;;;7.95;47.61;101162.63;5063801;28;20036;-70
2023/03/11 07:36:12;;;;;;;6.33;4.13;;;;;;;7.83;48.91;101162.53;5067120;28;20036;-70
2023/03/11 07:38:37;;;;;;;12.05;4.80;;;;;;;8.03;48.15;101164.38;5065870;28;20388;-70
2023/03/11 07:41:04;;;;;;;10.30;4.20;;;;;;;7.98;48.52;101167.84;5060764;28;20024;-70
2023/03/11 07:43:30;;;;;;;8.47;5.03;;;;;;;7.94;50.30;101170.38;5056543;28;20028;-71
2023/03/11 07:46:22;;;;;;;13.50;6.43;;;;;;;8.18;50.65;101159.25;5067215;28;20028;-70
2023/03/11 07:48:48;;;;;;;12.60;6.50;;;;;;;8.55;49.99;101169.88;5062166;28;20041;-70
2023/03/11 07:51:15;;;;;;;14.93;6.47;;;;;;;9.74;50.42;101161.31;5065763;28;20032;-70
2023/03/11 07:53:41;;;;;;;15.00;6.80;;;;;;;11.34;45.90;101160.59;5064359;28;20115;-71
2023/03/11 07:56:08;;;;;;;13.10;4.80;;;;;;;12.61;41.39;101164.56;5059533;28;20579;-71
2023/03/11 07:58:34;;;;;;;9.13;4.20;;;;;;;13.79;38.49;101165.38;5067435;28;20032;-70
2023/03/11 08:01:05;;;;;;;7.23;3.50;;;;;;;14.14;38.40;101164.72;5065754;28;20095;-70
2023/03/11 08:03:32;;;;;;;9.73;3.57;;;;;;;13.20;36.52;101179.47;5068669;28;20500;-71
2023/03/11 08:05:57;;;;;;;5.17;3.00;;;;;;;12.42;36.77;101168.28;5065845;28;20020;-70
2023/03/11 08:08:22;;;;;;;8.23;2.30;;;;;;;12.15;38.65;101179.09;5062599;28;20059;-70
2023/03/11 08:10:48;;;;;;;10.77;1.83;;;;;;;11.77;38.68;101174.22;5065793;28;20024;-71
2023/03/11 08:13:13;;;;;;;6.77;1.80;;;;;;;11.69;39.34;101177.78;5057994;28;20036;-71
2023/03/11 08:15:39;;;;;;;5.17;1.87;;;;;;;11.44;40.98;101181.47;5065916;28;20027;-70
2023/03/11 08:18:04;;;;;;;3.60;1.53;;;;;;;11.38;39.60;101192.88;5058626;28;20548;-70
2023/03/11 08:20:30;;;;;;;6.10;1.57;;;;;;;11.44;39.88;101194.56;5065866;28;20028;-72
2023/03/11 08:22:55;;;;;;;8.63;1.87;;;;;;;10.82;39.87;101197.56;5064486;28;20032;-70
2023/03/11 08:25:20;;;;;;;5.63;1.60;;;;;;;11.23;40.67;101204.31;5063699;28;20363;-70
2023/03/11 08:27:47;;;;;;;4.17;1.30;;;;;;;10.45;40.85;101208.19;5053986;28;20657;-70
2023/03/11 08:30:13;;;;;;;4.10;1.63;;;;;;;10.57;40.95;101208.16;5066677;28;20024;-70
2023/03/11 08:32:38;;;;;;;7.07;1.80;;;;;;;10.77;40.24;101215.91;5066455;28;20077;-70
2023/03/11 08:35:04;;;;;;;10.60;1.97;;;;;;;10.98;41.03;101209.69;5066546;28;20032;-70
2023/03/11 08:37:30;;;;;;;11.87;1.80;;;;;;;11.00;39.47;101212.28;5067670;28;20027;-70
2023/03/11 08:39:56;;;;;;;7.17;1.60;;;;;;;10.43;39.87;101216.03;5064630;28;20542;-70
2023/03/11 08:42:21;;;;;;;10.40;1.97;;;;;;;10.03;41.10;101210.91;5066831;28;20024;-70
2023/03/11 08:44:46;;;;;;;7.67;1.70;;;;;;;9.62;40.74;101223.09;5066095;28;20078;-70
2023/03/11 08:47:12;;;;;;;5.87;1.93;;;;;;;10.07;40.81;101216.97;5067432;28;20053;-70
2023/03/11 08:49:38;;;;;;;9.70;1.97;;;;;;;10.69;39.59;101226.41;5067628;28;20025;-70
2023/03/11 08:52:04;;;;;;;7.73;2.07;;;;;;;10.95;40.09;101235.88;5066702;28;20036;-70
2023/03/11 08:54:30;;;;;;;6.20;1.53;;;;;;;11.04;38.65;101229.72;5067234;28;20577;-70
2023/03/11 08:56:56;;;;;;;9.80;1.40;;;;;;;11.20;38.19;101230.50;5065878;28;20032;-69
2023/03/11 08:59:21;;;;;;;8.13;1.40;;;;;;;11.17;36.69;101230.53;5067459;28;20107;-70
2023/03/11 09:01:47;;;;;;;6.93;1.17;;;;;;;11.07;38.73;101234.06;5065767;28;20125;-70
2023/03/11 09:04:12;;;;;;;4.80;1.03;;;;;;;11.22;37.28;101231.34;5065947;28;20028;-70
2023/03/11 09:06:44;;;;;;;10.30;2.67;;;;;;;11.47;37.85;101228.56;5065994;28;20021;-71
2023/03/11 09:09:11;;;;;;;3.47;1.40;;;;;;;11.31;36.16;101238.28;5066676;28;20028;-71
2023/03/11 09:11:37;;;;;;;8.10;1.63;;;;;;;11.46;38.01;101242.56;5066621;28;20070;-70
2023/03/11 09:14:03;;;;;;;11.67;1.53;;;;;;;12.09;37.14;101239.44;5066922;28;20028;-70
2023/03/11 09:16:28;;;;;;;9.40;1.93;;;;;;;11.84;37.17;101249.22;5066547;28;20400;-70
2023/03/11 09:18:54;;;;;;;7.43;1.93;;;;;;;12.26;35.88;101241.88;5067865;28;20017;-69
2023/03/11 09:21:19;;;;;;;8.70;1.13;;;;;;;12.51;35.49;101242.44;5068730;28;20495;-70
2023/03/11 09:23:46;;;;;;;10.37;1.13;;;;;;;12.71;35.14;101239.59;5070992;28;20033;-69
2023/03/11 09:26:11;;;;;;;11.00;1.33;;;;;;;13.54;34.69;101236.72;5071025;28;20488;-68
2023/03/11 09:28:37;;;;;;;5.67;1.03;;;;;;;14.35;32.49;101231.78;5069239;28;20048;-70
2023/03/11 09:31:03;;;;;;;9.63;2.57;;;;;;;15.05;32.15;101223.34;5070503;28;20043;-70
2023/03/11 09:33:29;;;;;;;10.20;1.90;;;;;;;15.59;31.74;101223.84;5070032;28;20028;-70
2023/03/11 09:35:54;;;;;;;5.03;1.63;;;;;;;14.88;31.57;101234.28;5071296;28;20392;-70
2023/03/11 09:38:19;;;;;;;5.47;1.50;;;;;;;15.15;31.71;101233.69;5068934;28;20027;-70
2023/03/11 09:40:48;;;;;;;8.47;1.90;;;;;;;14.31;31.99;101240.63;5070658;28;20028;-70
2023/03/11 09:43:38;;;;;;;10.47;1.60;;;;;;;14.59;30.82;101237.50;5070641;28;20419;-70
2023/03/11 09:46:11;;;;;;;7.00;1.80;;;;;;;16.43;30.04;101234.00;5068835;28;20048;-70
2023/03/11 09:48:43;;;;;;;;;;;;;;;16.39;30.05;101227.06;5066925;28;20032;-70
2023/03/11 09:51:17;;;;;;;7.97;1.67;;;;;;;16.79;29.77;101228.56;5057087;28;19916;-70
2023/03/11 09:53:44;;;;;;;7.67;1.80;;;;;;;17.18;28.56;101232.69;5068123;28;20077;-71
2023/03/11 09:56:14;;;;;;;4.50;1.20;;;;;;;15.58;28.26;101237.97;5068940;28;20033;-71
2023/03/11 09:58:46;;;;;;;5.57;1.50;;;;;;;16.54;28.04;101232.81;5069046;28;20051;-70
2023/03/11 10:01:29;;;;;;;3.70;1.38;;;;;;;15.69;29.71;101241.19;5067870;28;20076;-71
2023/03/11 10:04:01;;;;;;;3.78;1.55;;;;;;;15.95;29.84;101250.25;5069902;28;20154;-71
2023/03/11 10:06:30;;;;;;;4.28;1.40;;;;;;;15.76;29.99;101242.75;5069913;28;20072;-71
2023/03/11 10:09:11;;;;;;;9.00;1.17;;;;;;;15.83;29.45;101240.03;5069070;28;20028;-71
2023/03/11 10:12:07;;;;;;;3.87;1.17;;;;;;;15.75;29.75;101235.75;5070226;28;20043;-71
2023/03/11 10:14:38;;;;;;;7.73;1.70;;;;;;;15.05;30.18;101243.56;5050212;28;20036;-71
2023/03/11 10:17:31;;;;;;;4.90;1.40;;;;;;;15.59;30.62;101237.03;5053815;28;20036;-70
2023/03/11 10:20:20;;;;;;;3.13;1.65;;;;;;;14.71;31.00;101239.91;5073373;28;20051;-71
2023/03/11 10:23:09;;;;;;;2.53;1.03;;;;;;;14.46;31.12;101243.88;5084929;28;20050;-70
2023/03/11 10:26:04;;;;;;;7.53;2.77;;;;;;;14.68;31.13;101239.94;5061122;28;20029;-70
2023/03/11 10:28:35;;;;;;;6.77;1.47;;;;;;;14.40;31.17;101237.84;5053936;28;20040;-70
2023/03/11 10:31:25;;;;;;;5.03;1.17;;;;;;;15.28;31.49;101240.41;5069417;28;20020;-70
2023/03/11 10:34:01;;;;;;;9.83;1.93;;;;;;;14.70;32.06;101243.41;5068343;28;20035;-70
2023/03/11 10:36:51;;;;;;;5.77;1.10;;;;;;;14.07;32.07;101241.97;5070170;28;20024;-70
2023/03/11 10:39:18;;;;;;;9.60;1.60;;;;;;;14.66;30.46;101240.88;5070228;28;20020;-70
2023/03/11 10:41:54;;;;;;;6.33;1.33;;;;;;;14.73;30.74;101243.34;5067223;28;20028;-71
2023/03/11 10:44:39;;;;;;;11.50;1.70;;;;;;;14.75;31.09;101246.84;5069295;28;20086;-71
2023/03/11 10:47:12;;;;;;;5.90;1.20;;;;;;;14.32;31.31;101247.63;5084469;28;20514;-69
2023/03/11 10:49:38;;;;;;;6.67;1.10;;;;;;;14.05;31.91;101251.63;5063053;28;20419;-69
2023/03/11 10:52:04;;;;;;;5.80;1.20;;;;;;;13.18;33.43;101250.34;5057399;28;20044;-69
2023/03/11 10:54:34;;;;;;;3.50;1.00;;;;;;;14.38;31.60;101249.28;5064541;28;20055;-70
2023/03/11 10:57:03;;;;;;;4.67;1.00;;;;;;;13.36;32.52;101265.00;5068069;28;20024;-70
2023/03/11 10:59:55;;;;;;;4.70;1.10;;;;;;;14.99;31.25;101260.38;5062804;28;20615;-70
2023/03/11 11:02:32;;;;;;;5.27;1.37;;;;;;;14.28;32.04;101259.09;5058406;28;20059;-70
2023/03/11 11:05:16;;;;;;;7.80;1.53;;;;;;;14.49;32.81;101265.72;5066325;28;20052;-70
2023/03/11 11:07:43;;;;;;;5.37;1.80;;;;;;;15.03;31.35;101262.03;5066791;28;20024;-71
2023/03/11 11:10:21;;;;;;;7.53;1.93;;;;;;;14.54;31.59;101257.75;5068254;28;20028;-69
2023/03/11 11:13:12;;;;;;;12.57;3.37;;;;;;;13.93;32.64;101268.50;5064112;28;20055;-69
2023/03/11 11:15:49;;;;;;;5.70;1.67;;;;;;;14.45;31.17;101257.91;5066483;28;20043;-69
2023/03/11 11:18:22;;;;;;;5.07;1.20;;;;;;;14.81;32.20;101272.16;5069140;28;20032;-69
2023/03/11 11:21:01;;;;;;;6.40;1.50;;;;;;;14.45;32.15;101268.44;5062893;28;20147;-69
2023/03/11 11:23:31;;;;;;;4.50;1.30;;;;;;;15.06;31.26;101261.94;5064147;28;20385;-69
2023/03/11 11:25:59;;;;;;;7.60;1.30;;;;;;;15.06;30.48;101269.84;5072110;28;20498;-69
2023/03/11 11:28:25;;;;;;;11.37;1.23;;;;;;;15.41;30.06;101268.22;5076829;28;20059;-69
2023/03/11 11:30:55;;;;;;;6.03;1.60;;;;;;;14.60;31.97;101268.13;5072523;28;20479;-70
2023/03/11 11:33:47;;;;;;;2.67;0.87;;;;;;;15.48;30.66;101262.78;5066639;28;20043;-69
2023/03/11 11:36:15;;;;;;;10.00;1.45;;;;;;;15.60;30.63;101262.47;5070288;28;20032;-69